Eko 4 — SVAR8 — position and weather

sailwx.info

Track history (hours):
 
Tides and Currents Weather Stations Pressure Air Temp Water Temp Dewpoint Dewpoint Depression Visibility Wind Speed Wind Dir Waves Ship Positions

Eko 4

Last reported at 2015-Jan-26 23:24 UTC. Time now 2015-Jan-27 10:25 UTC.
Position N 36°12' E 026°06'.

Length 88 m; draft 5.7 m.

Type: Ship (hazmat cat A). MMSI: 240912000.

Date/timePositionNaut miles runAvg speedWind from/ knotsBaromVisibWave heightAir tempDewpointWater temp
2015-Jan-26 23:24N 36°12' E 026°06'57 3.4
2015-Jan-26 06:31N 37°09' E 026°04'12 9.8
2015-Jan-26 05:14N 37°11' E 025°49'7 9.6
2015-Jan-26 04:33N 37°13' E 025°41'10 9.6
2015-Jan-26 03:33N 37°15' E 025°29'1010.0
2015-Jan-26 02:34N 37°16' E 025°17'10 9.6
2015-Jan-26 01:33N 37°18' E 025°05'10 9.9
2015-Jan-26 00:33N 37°19' E 024°53'57 8.9
2015-Jan-25 18:07N 37°38' E 023°45'5 8.6
2015-Jan-25 17:33N 37°42' E 023°41'9 9.2
2015-Jan-25 16:33N 37°51' E 023°37'8 7.5
2015-Jan-25 15:33N 37°58' E 023°33'4 3.1
2015-Jan-25 14:05N 38°02' E 023°36'0 0.0
2015-Jan-25 01:14N 38°02' E 023°36'0 0.0
2015-Jan-25 00:08N 38°02' E 023°36'0 0.0
2015-Jan-24 23:29N 38°02' E 023°36'0 0.0
2015-Jan-24 22:23N 38°02' E 023°36'0 0.0
2015-Jan-24 21:11N 38°02' E 023°36'0 0.0
2015-Jan-24 20:05N 38°02' E 023°36'0 0.0
2015-Jan-24 19:23N 38°02' E 023°36'0 0.0
2015-Jan-24 18:29N 38°02' E 023°36'3 3.6
2015-Jan-24 17:33N 37°59' E 023°33'5 4.7
2015-Jan-24 16:33N 37°55' E 023°36'9 9.2
2015-Jan-24 15:33N 37°47' E 023°41'160 3.8
2015-Jan-22 21:03N 35°21' E 025°03'0 0.0
2015-Jan-22 18:25N 35°21' E 025°03'0 0.0
2015-Jan-22 16:31N 35°21' E 025°03'0 0.0
2015-Jan-22 06:13N 35°21' E 025°03'3 4.7
2015-Jan-22 05:32N 35°24' E 025°04'10 9.4
2015-Jan-22 04:32N 35°34' E 025°03'9 9.4
2015-Jan-22 03:33N 35°43' E 025°01'11 9.4
2015-Jan-22 02:24N 35°53' E 024°57'8 9.7
2015-Jan-22 01:32N 36°01' E 024°55'13 9.5
2015-Jan-22 00:12N 36°14' E 024°52'6 9.4
2015-Jan-21 23:33N 36°20' E 024°50'97 8.9
2015-Jan-21 12:33N 37°40' E 023°42'9 9.1
2015-Jan-21 11:34N 37°49' E 023°37'8 8.4
2015-Jan-21 10:33N 37°57' E 023°35'6 5.5
2015-Jan-21 09:33N 38°02' E 023°32'3 0.2
2015-Jan-20 18:25N 38°02' E 023°36'0 0.0
2015-Jan-20 17:31N 38°02' E 023°36'0 0.0
2015-Jan-20 16:25N 38°02' E 023°36'0 0.1
2015-Jan-20 15:33N 38°02' E 023°36'5 4.8
2015-Jan-20 14:33N 37°57' E 023°35'3 2.5
2015-Jan-20 13:33N 37°55' E 023°36'10 9.9
2015-Jan-20 12:33N 37°46' E 023°42'  
2015-Jan-18 02:09N 36°19' E 024°50'82 9.2
2015-Jan-17 17:13N 37°30' E 023°58'9 9.2
2015-Jan-17 16:16N 37°35' E 023°50'7 9.4
2015-Jan-17 15:33N 37°39' E 023°43'7 7.1
2015-Jan-17 14:33N 37°45' E 023°38'6 6.4
2015-Jan-17 13:33N 37°51' E 023°36'4 4.1
2015-Jan-17 12:32N 37°55' E 023°33'2 2.3
2015-Jan-17 11:33N 37°57' E 023°35'5 4.9
2015-Jan-17 10:33N 38°01' E 023°32'0 0.0
2015-Jan-17 09:33N 38°01' E 023°32'0 0.1
2015-Jan-17 08:33N 38°01' E 023°33'  
Track history (hours):
 
Tides and Currents Weather Stations Pressure Air Temp Water Temp Dewpoint Dewpoint Depression Visibility Wind Speed Wind Dir Waves Ship Positions

Eko 4

Last reported at 2015-Jan-26 23:24 UTC. Time now 2015-Jan-27 10:25 UTC.
Position N 36°12' E 026°06'.

Length 88 m; draft 5.7 m.

Type: Ship (hazmat cat A). MMSI: 240912000.

Date/timePositionNaut miles runAvg speedWind from/ knotsBaromVisibWave heightAir tempDewpointWater temp
2015-Jan-26 23:24N 36°12' E 026°06'57 3.4
2015-Jan-26 06:31N 37°09' E 026°04'12 9.8
2015-Jan-26 05:14N 37°11' E 025°49'7 9.6
2015-Jan-26 04:33N 37°13' E 025°41'10 9.6
2015-Jan-26 03:33N 37°15' E 025°29'1010.0
2015-Jan-26 02:34N 37°16' E 025°17'10 9.6
2015-Jan-26 01:33N 37°18' E 025°05'10 9.9
2015-Jan-26 00:33N 37°19' E 024°53'57 8.9
2015-Jan-25 18:07N 37°38' E 023°45'5 8.6
2015-Jan-25 17:33N 37°42' E 023°41'9 9.2
2015-Jan-25 16:33N 37°51' E 023°37'8 7.5
2015-Jan-25 15:33N 37°58' E 023°33'4 3.1
2015-Jan-25 14:05N 38°02' E 023°36'0 0.0
2015-Jan-25 01:14N 38°02' E 023°36'0 0.0
2015-Jan-25 00:08N 38°02' E 023°36'0 0.0
2015-Jan-24 23:29N 38°02' E 023°36'0 0.0
2015-Jan-24 22:23N 38°02' E 023°36'0 0.0
2015-Jan-24 21:11N 38°02' E 023°36'0 0.0
2015-Jan-24 20:05N 38°02' E 023°36'0 0.0
2015-Jan-24 19:23N 38°02' E 023°36'0 0.0
2015-Jan-24 18:29N 38°02' E 023°36'3 3.6
2015-Jan-24 17:33N 37°59' E 023°33'5 4.7
2015-Jan-24 16:33N 37°55' E 023°36'9 9.2
2015-Jan-24 15:33N 37°47' E 023°41'160 3.8
2015-Jan-22 21:03N 35°21' E 025°03'0 0.0
2015-Jan-22 18:25N 35°21' E 025°03'0 0.0
2015-Jan-22 16:31N 35°21' E 025°03'0 0.0
2015-Jan-22 06:13N 35°21' E 025°03'3 4.7
2015-Jan-22 05:32N 35°24' E 025°04'10 9.4
2015-Jan-22 04:32N 35°34' E 025°03'9 9.4
2015-Jan-22 03:33N 35°43' E 025°01'11 9.4
2015-Jan-22 02:24N 35°53' E 024°57'8 9.7
2015-Jan-22 01:32N 36°01' E 024°55'13 9.5
2015-Jan-22 00:12N 36°14' E 024°52'6 9.4
2015-Jan-21 23:33N 36°20' E 024°50'97 8.9
2015-Jan-21 12:33N 37°40' E 023°42'9 9.1
2015-Jan-21 11:34N 37°49' E 023°37'8 8.4
2015-Jan-21 10:33N 37°57' E 023°35'6 5.5
2015-Jan-21 09:33N 38°02' E 023°32'3 0.2
2015-Jan-20 18:25N 38°02' E 023°36'0 0.0
2015-Jan-20 17:31N 38°02' E 023°36'0 0.0
2015-Jan-20 16:25N 38°02' E 023°36'0 0.1
2015-Jan-20 15:33N 38°02' E 023°36'5 4.8
2015-Jan-20 14:33N 37°57' E 023°35'3 2.5
2015-Jan-20 13:33N 37°55' E 023°36'10 9.9
2015-Jan-20 12:33N 37°46' E 023°42'  
2015-Jan-18 02:09N 36°19' E 024°50'82 9.2
2015-Jan-17 17:13N 37°30' E 023°58'9 9.2
2015-Jan-17 16:16N 37°35' E 023°50'7 9.4
2015-Jan-17 15:33N 37°39' E 023°43'7 7.1
2015-Jan-17 14:33N 37°45' E 023°38'6 6.4
2015-Jan-17 13:33N 37°51' E 023°36'4 4.1
2015-Jan-17 12:32N 37°55' E 023°33'2 2.3
2015-Jan-17 11:33N 37°57' E 023°35'5 4.9
2015-Jan-17 10:33N 38°01' E 023°32'0 0.0
2015-Jan-17 09:33N 38°01' E 023°32'0 0.1
2015-Jan-17 08:33N 38°01' E 023°33'  

Dump ship's entire track history